EHAM/AMS METAR and TAF weather

Enter ICAO airport designator
Station Type Date Time Source
EHAM METAR 2020/09/27 04:25 UTC NOAA

EHAM 270425Z 01016G26KT 320V060 9999 SCT006 BKN008 16/15 Q0997 TEMPO SCT008 BKN018


Station Type Date Time Source
EHAM Decoded METAR 2020/09/27 04:25 UTC NOAA

Amsterdam Airport Schiphol, Netherlands (EHAM) 52-18N 004-46E -2M
Sep 27, 2020 - 12:25 AM EDT / 2020.09.27 0425 UTC
Wind: from the N (010 degrees) at 18 MPH (16 KT) gusting to 30 MPH (26 KT) (direction variable):0
Visibility: greater than 7 mile(s):0
Sky conditions: mostly cloudy
Temperature: 60 F (16 C)
Dew Point: 59 F (15 C)
Relative Humidity: 93%
Pressure (altimeter): 29.44 in. Hg (0997 hPa)
ob: EHAM 270425Z 01016G26KT 320V060 9999 SCT006 BKN008 16/15 Q0997 TEMPO SCT008 BKN018
cycle: 4

Station Type Date Time Source
EHAM TAF 2020/09/26 18:27 UTC NOAA

TAF TAF EHAM 261646Z 2618/2724 35013KT CAVOK
TEMPO 2618/2620 6000 -SHRA SCT018TCU BKN030
BECMG 2621/2623 35015G28KT 6000 -RA SCT012 BKN018 PROB40
TEMPO 2623/2708 4000 RADZ BKN007 OVC012
BECMG 2707/2709 03013KT 9999 NSW SCT020 SCT030
BECMG 2712/2715 05007KT PROB30 2721/2724 4000 BR

Example: see airport list